sensor_id;sensor_type;location;lat;lon;timestamp;temperature;humidity
64143;DHT22;50437;51.970;5.904;2022-12-07T00:00:55;3.80;99.90
64143;DHT22;50437;51.970;5.904;2022-12-07T00:03:21;3.70;99.90
64143;DHT22;50437;51.970;5.904;2022-12-07T00:05:47;3.70;99.90
64143;DHT22;50437;51.970;5.904;2022-12-07T00:08:13;3.70;99.90
64143;DHT22;50437;51.970;5.904;2022-12-07T00:10:38;3.60;99.90
64143;DHT22;50437;51.970;5.904;2022-12-07T00:13:07;3.50;99.90
64143;DHT22;50437;51.970;5.904;2022-12-07T00:15:33;3.50;99.90
64143;DHT22;50437;51.970;5.904;2022-12-07T00:18:00;3.40;99.90
64143;DHT22;50437;51.970;5.904;2022-12-07T00:20:26;3.30;99.90
64143;DHT22;50437;51.970;5.904;2022-12-07T00:22:52;3.20;99.90
64143;DHT22;50437;51.970;5.904;2022-12-07T00:25:18;3.20;99.90
64143;DHT22;50437;51.970;5.904;2022-12-07T00:27:44;3.10;99.90
64143;DHT22;50437;51.970;5.904;2022-12-07T00:30:10;3.00;99.90
64143;DHT22;50437;51.970;5.904;2022-12-07T00:32:36;3.00;99.90
64143;DHT22;50437;51.970;5.904;2022-12-07T00:35:05;3.00;99.90
64143;DHT22;50437;51.970;5.904;2022-12-07T00:37:31;2.90;99.90
64143;DHT22;50437;51.970;5.904;2022-12-07T00:39:57;2.80;99.90
64143;DHT22;50437;51.970;5.904;2022-12-07T00:42:23;2.80;99.90
64143;DHT22;50437;51.970;5.904;2022-12-07T00:44:49;2.70;99.90
64143;DHT22;50437;51.970;5.904;2022-12-07T00:47:15;2.60;99.90
64143;DHT22;50437;51.970;5.904;2022-12-07T00:49:41;2.70;99.90
64143;DHT22;50437;51.970;5.904;2022-12-07T00:52:07;2.60;99.90
64143;DHT22;50437;51.970;5.904;2022-12-07T00:54:32;2.60;99.90
64143;DHT22;50437;51.970;5.904;2022-12-07T00:56:58;2.70;99.90
64143;DHT22;50437;51.970;5.904;2022-12-07T00:59:24;2.70;99.90
64143;DHT22;50437;51.970;5.904;2022-12-07T01:01:50;2.70;99.90
64143;DHT22;50437;51.970;5.904;2022-12-07T01:04:16;2.70;99.90
64143;DHT22;50437;51.970;5.904;2022-12-07T01:06:42;2.60;99.90
64143;DHT22;50437;51.970;5.904;2022-12-07T01:09:08;2.60;99.90
64143;DHT22;50437;51.970;5.904;2022-12-07T01:11:34;2.60;99.90
64143;DHT22;50437;51.970;5.904;2022-12-07T01:14:00;2.50;99.90
64143;DHT22;50437;51.970;5.904;2022-12-07T01:16:27;2.50;99.90
64143;DHT22;50437;51.970;5.904;2022-12-07T01:18:55;2.40;99.90
64143;DHT22;50437;51.970;5.904;2022-12-07T01:21:23;2.40;99.90
64143;DHT22;50437;51.970;5.904;2022-12-07T01:23:49;2.30;99.90
64143;DHT22;50437;51.970;5.904;2022-12-07T01:26:17;2.30;99.90
64143;DHT22;50437;51.970;5.904;2022-12-07T01:28:43;2.30;99.90
64143;DHT22;50437;51.970;5.904;2022-12-07T01:31:10;2.20;99.90
64143;DHT22;50437;51.970;5.904;2022-12-07T01:33:37;2.10;99.90
64143;DHT22;50437;51.970;5.904;2022-12-07T01:38:38;2.20;99.90
64143;DHT22;50437;51.970;5.904;2022-12-07T01:41:04;2.20;99.90
64143;DHT22;50437;51.970;5.904;2022-12-07T01:43:31;2.10;99.90
64143;DHT22;50437;51.970;5.904;2022-12-07T01:45:58;2.10;99.90
64143;DHT22;50437;51.970;5.904;2022-12-07T01:48:25;2.10;99.90
64143;DHT22;50437;51.970;5.904;2022-12-07T01:50:52;2.10;99.90
64143;DHT22;50437;51.970;5.904;2022-12-07T01:53:19;2.00;99.90
64143;DHT22;50437;51.970;5.904;2022-12-07T01:55:47;2.00;99.90
64143;DHT22;50437;51.970;5.904;2022-12-07T01:58:15;2.00;99.90
64143;DHT22;50437;51.970;5.904;2022-12-07T02:00:42;2.00;99.90
64143;DHT22;50437;51.970;5.904;2022-12-07T02:03:12;1.90;99.90
64143;DHT22;50437;51.970;5.904;2022-12-07T02:05:40;2.00;99.90
64143;DHT22;50437;51.970;5.904;2022-12-07T02:08:06;1.90;99.90
64143;DHT22;50437;51.970;5.904;2022-12-07T02:10:33;1.90;99.90
64143;DHT22;50437;51.970;5.904;2022-12-07T02:18:16;1.80;99.90
64143;DHT22;50437;51.970;5.904;2022-12-07T02:20:57;1.80;99.90
64143;DHT22;50437;51.970;5.904;2022-12-07T02:31:22;1.70;99.90
64143;DHT22;50437;51.970;5.904;2022-12-07T02:33:50;1.70;99.90
64143;DHT22;50437;51.970;5.904;2022-12-07T02:36:21;1.70;99.90
64143;DHT22;50437;51.970;5.904;2022-12-07T02:38:58;1.70;99.90
64143;DHT22;50437;51.970;5.904;2022-12-07T02:41:26;1.70;99.90
64143;DHT22;50437;51.970;5.904;2022-12-07T02:44:00;1.60;99.90
64143;DHT22;50437;51.970;5.904;2022-12-07T02:46:28;1.60;99.90
64143;DHT22;50437;51.970;5.904;2022-12-07T02:48:55;1.60;99.90
64143;DHT22;50437;51.970;5.904;2022-12-07T02:51:22;1.50;99.90
64143;DHT22;50437;51.970;5.904;2022-12-07T02:53:47;1.50;99.90
64143;DHT22;50437;51.970;5.904;2022-12-07T02:56:26;1.50;99.90
64143;DHT22;50437;51.970;5.904;2022-12-07T03:04:22;1.50;99.90
64143;DHT22;50437;51.970;5.904;2022-12-07T03:06:53;1.60;99.90
64143;DHT22;50437;51.970;5.904;2022-12-07T03:09:21;1.60;99.90
64143;DHT22;50437;51.970;5.904;2022-12-07T03:11:49;1.60;99.90
64143;DHT22;50437;51.970;5.904;2022-12-07T03:16:43;1.80;99.90
64143;DHT22;50437;51.970;5.904;2022-12-07T03:19:12;1.80;99.90
64143;DHT22;50437;51.970;5.904;2022-12-07T03:21:39;1.80;99.90
64143;DHT22;50437;51.970;5.904;2022-12-07T03:24:08;1.80;99.90
64143;DHT22;50437;51.970;5.904;2022-12-07T03:26:36;1.80;99.90
64143;DHT22;50437;51.970;5.904;2022-12-07T03:29:08;1.80;99.90
64143;DHT22;50437;51.970;5.904;2022-12-07T03:31:36;2.00;99.90
64143;DHT22;50437;51.970;5.904;2022-12-07T03:34:26;1.90;99.90
64143;DHT22;50437;51.970;5.904;2022-12-07T03:36:52;2.00;99.90
64143;DHT22;50437;51.970;5.904;2022-12-07T03:39:25;2.10;99.90
64143;DHT22;50437;51.970;5.904;2022-12-07T03:41:54;2.10;99.90
64143;DHT22;50437;51.970;5.904;2022-12-07T03:44:20;2.10;99.90
64143;DHT22;50437;51.970;5.904;2022-12-07T03:47:04;2.20;99.90
64143;DHT22;50437;51.970;5.904;2022-12-07T03:49:40;2.20;99.90
64143;DHT22;50437;51.970;5.904;2022-12-07T03:54:59;2.40;99.90
64143;DHT22;50437;51.970;5.904;2022-12-07T03:57:26;2.40;99.90
64143;DHT22;50437;51.970;5.904;2022-12-07T03:59:54;2.40;99.90
64143;DHT22;50437;51.970;5.904;2022-12-07T04:02:20;2.40;99.90
64143;DHT22;50437;51.970;5.904;2022-12-07T04:04:46;2.40;99.90
64143;DHT22;50437;51.970;5.904;2022-12-07T04:07:12;2.40;99.90
64143;DHT22;50437;51.970;5.904;2022-12-07T04:09:38;2.40;99.90
64143;DHT22;50437;51.970;5.904;2022-12-07T04:12:04;2.30;99.90
64143;DHT22;50437;51.970;5.904;2022-12-07T04:14:32;2.30;99.90
64143;DHT22;50437;51.970;5.904;2022-12-07T04:16:58;2.20;99.90
64143;DHT22;50437;51.970;5.904;2022-12-07T04:19:25;2.20;99.90
64143;DHT22;50437;51.970;5.904;2022-12-07T04:21:51;2.20;99.90
64143;DHT22;50437;51.970;5.904;2022-12-07T04:24:17;2.20;99.90
64143;DHT22;50437;51.970;5.904;2022-12-07T04:26:43;2.10;99.90
64143;DHT22;50437;51.970;5.904;2022-12-07T04:29:10;2.10;99.90
64143;DHT22;50437;51.970;5.904;2022-12-07T04:31:36;2.10;99.90
64143;DHT22;50437;51.970;5.904;2022-12-07T04:34:02;2.10;99.90
64143;DHT22;50437;51.970;5.904;2022-12-07T04:36:29;2.20;99.90
64143;DHT22;50437;51.970;5.904;2022-12-07T04:38:55;2.20;99.90
64143;DHT22;50437;51.970;5.904;2022-12-07T04:41:21;2.20;99.90
64143;DHT22;50437;51.970;5.904;2022-12-07T04:46:20;2.30;99.90
64143;DHT22;50437;51.970;5.904;2022-12-07T04:48:46;2.40;99.90
64143;DHT22;50437;51.970;5.904;2022-12-07T04:51:13;2.30;99.90
64143;DHT22;50437;51.970;5.904;2022-12-07T04:53:39;2.30;99.90
64143;DHT22;50437;51.970;5.904;2022-12-07T04:56:05;2.30;99.90
64143;DHT22;50437;51.970;5.904;2022-12-07T04:58:31;2.40;99.90
64143;DHT22;50437;51.970;5.904;2022-12-07T05:00:57;2.50;99.90
64143;DHT22;50437;51.970;5.904;2022-12-07T05:03:23;2.40;99.90
64143;DHT22;50437;51.970;5.904;2022-12-07T05:05:49;2.40;99.90
64143;DHT22;50437;51.970;5.904;2022-12-07T05:08:15;2.40;99.90
64143;DHT22;50437;51.970;5.904;2022-12-07T05:10:41;2.30;99.90
64143;DHT22;50437;51.970;5.904;2022-12-07T05:13:07;2.10;99.90
64143;DHT22;50437;51.970;5.904;2022-12-07T05:15:34;2.10;99.90
64143;DHT22;50437;51.970;5.904;2022-12-07T05:17:59;2.00;99.90
64143;DHT22;50437;51.970;5.904;2022-12-07T05:20:25;2.00;99.90
64143;DHT22;50437;51.970;5.904;2022-12-07T05:22:51;1.90;99.90
64143;DHT22;50437;51.970;5.904;2022-12-07T05:25:17;1.80;99.90
64143;DHT22;50437;51.970;5.904;2022-12-07T05:27:43;1.80;99.90
64143;DHT22;50437;51.970;5.904;2022-12-07T05:30:09;1.70;99.90
64143;DHT22;50437;51.970;5.904;2022-12-07T05:32:35;1.70;99.90
64143;DHT22;50437;51.970;5.904;2022-12-07T05:35:01;1.70;99.90
64143;DHT22;50437;51.970;5.904;2022-12-07T05:37:27;1.60;99.90
64143;DHT22;50437;51.970;5.904;2022-12-07T05:39:53;1.70;99.90
64143;DHT22;50437;51.970;5.904;2022-12-07T05:42:19;1.80;99.90
64143;DHT22;50437;51.970;5.904;2022-12-07T05:44:45;1.80;99.90
64143;DHT22;50437;51.970;5.904;2022-12-07T05:47:12;1.90;99.90
64143;DHT22;50437;51.970;5.904;2022-12-07T05:49:38;1.90;99.90
64143;DHT22;50437;51.970;5.904;2022-12-07T05:52:04;1.90;99.90
64143;DHT22;50437;51.970;5.904;2022-12-07T05:54:30;1.80;99.90
64143;DHT22;50437;51.970;5.904;2022-12-07T05:56:56;1.70;99.90
64143;DHT22;50437;51.970;5.904;2022-12-07T05:59:22;1.70;99.90
64143;DHT22;50437;51.970;5.904;2022-12-07T06:01:59;1.60;99.90
64143;DHT22;50437;51.970;5.904;2022-12-07T06:04:26;1.60;99.90
64143;DHT22;50437;51.970;5.904;2022-12-07T06:06:53;1.50;99.90
64143;DHT22;50437;51.970;5.904;2022-12-07T06:09:19;1.50;99.90
64143;DHT22;50437;51.970;5.904;2022-12-07T06:11:45;1.40;99.90
64143;DHT22;50437;51.970;5.904;2022-12-07T06:14:29;1.30;99.90
64143;DHT22;50437;51.970;5.904;2022-12-07T06:16:55;1.30;99.90
64143;DHT22;50437;51.970;5.904;2022-12-07T06:19:22;1.30;99.90
64143;DHT22;50437;51.970;5.904;2022-12-07T06:21:48;1.30;99.90
64143;DHT22;50437;51.970;5.904;2022-12-07T06:24:14;1.20;99.90
64143;DHT22;50437;51.970;5.904;2022-12-07T06:26:40;1.30;99.90
64143;DHT22;50437;51.970;5.904;2022-12-07T06:29:06;1.20;99.90
64143;DHT22;50437;51.970;5.904;2022-12-07T06:31:32;1.20;99.90
64143;DHT22;50437;51.970;5.904;2022-12-07T06:34:02;1.20;99.90
64143;DHT22;50437;51.970;5.904;2022-12-07T06:36:28;1.20;99.90
64143;DHT22;50437;51.970;5.904;2022-12-07T06:38:54;1.20;99.90
64143;DHT22;50437;51.970;5.904;2022-12-07T06:41:20;1.10;99.90
64143;DHT22;50437;51.970;5.904;2022-12-07T06:43:46;1.10;99.90
64143;DHT22;50437;51.970;5.904;2022-12-07T06:46:13;1.10;99.90
64143;DHT22;50437;51.970;5.904;2022-12-07T06:48:40;1.10;99.90
64143;DHT22;50437;51.970;5.904;2022-12-07T06:51:06;1.10;99.90
64143;DHT22;50437;51.970;5.904;2022-12-07T06:53:32;1.10;99.90
64143;DHT22;50437;51.970;5.904;2022-12-07T06:55:58;1.10;99.90
64143;DHT22;50437;51.970;5.904;2022-12-07T06:58:24;1.10;99.90
64143;DHT22;50437;51.970;5.904;2022-12-07T07:00:50;1.10;99.90
64143;DHT22;50437;51.970;5.904;2022-12-07T07:03:16;1.10;99.90
64143;DHT22;50437;51.970;5.904;2022-12-07T07:05:43;1.10;99.90
64143;DHT22;50437;51.970;5.904;2022-12-07T07:08:09;1.10;99.90
64143;DHT22;50437;51.970;5.904;2022-12-07T07:10:35;1.10;99.90
64143;DHT22;50437;51.970;5.904;2022-12-07T07:13:01;1.10;99.90
64143;DHT22;50437;51.970;5.904;2022-12-07T07:15:27;1.10;99.90
64143;DHT22;50437;51.970;5.904;2022-12-07T07:17:53;1.10;99.90
64143;DHT22;50437;51.970;5.904;2022-12-07T07:20:20;1.10;99.90
64143;DHT22;50437;51.970;5.904;2022-12-07T07:22:46;1.10;99.90
64143;DHT22;50437;51.970;5.904;2022-12-07T07:25:12;1.10;99.90
64143;DHT22;50437;51.970;5.904;2022-12-07T07:27:38;1.10;99.90
64143;DHT22;50437;51.970;5.904;2022-12-07T07:30:04;1.10;99.90
64143;DHT22;50437;51.970;5.904;2022-12-07T07:32:33;1.00;99.90
64143;DHT22;50437;51.970;5.904;2022-12-07T07:35:00;1.00;99.90
64143;DHT22;50437;51.970;5.904;2022-12-07T07:37:26;1.00;99.90
64143;DHT22;50437;51.970;5.904;2022-12-07T07:39:52;1.00;99.90
64143;DHT22;50437;51.970;5.904;2022-12-07T07:42:18;1.00;99.90
64143;DHT22;50437;51.970;5.904;2022-12-07T07:44:45;1.00;99.90
64143;DHT22;50437;51.970;5.904;2022-12-07T07:47:11;1.00;99.90
64143;DHT22;50437;51.970;5.904;2022-12-07T07:49:37;0.90;99.90
64143;DHT22;50437;51.970;5.904;2022-12-07T07:52:03;0.90;99.90
64143;DHT22;50437;51.970;5.904;2022-12-07T07:54:29;0.90;99.90
64143;DHT22;50437;51.970;5.904;2022-12-07T07:56:55;0.90;99.90
64143;DHT22;50437;51.970;5.904;2022-12-07T07:59:21;0.90;99.90
64143;DHT22;50437;51.970;5.904;2022-12-07T08:01:46;1.00;99.90
64143;DHT22;50437;51.970;5.904;2022-12-07T08:04:12;1.00;99.90
64143;DHT22;50437;51.970;5.904;2022-12-07T08:06:38;1.00;99.90
64143;DHT22;50437;51.970;5.904;2022-12-07T08:09:04;1.10;99.90
64143;DHT22;50437;51.970;5.904;2022-12-07T08:11:32;1.10;99.90
64143;DHT22;50437;51.970;5.904;2022-12-07T08:13:58;1.10;99.90
64143;DHT22;50437;51.970;5.904;2022-12-07T08:16:23;1.10;99.90
64143;DHT22;50437;51.970;5.904;2022-12-07T08:18:49;1.20;99.90
64143;DHT22;50437;51.970;5.904;2022-12-07T08:21:15;1.30;99.90
64143;DHT22;50437;51.970;5.904;2022-12-07T08:23:42;1.40;99.90
64143;DHT22;50437;51.970;5.904;2022-12-07T08:26:12;1.50;99.90
64143;DHT22;50437;51.970;5.904;2022-12-07T08:28:38;1.80;99.90
64143;DHT22;50437;51.970;5.904;2022-12-07T08:31:06;2.00;99.90
64143;DHT22;50437;51.970;5.904;2022-12-07T08:33:32;2.20;99.90
64143;DHT22;50437;51.970;5.904;2022-12-07T08:36:07;2.30;99.90
64143;DHT22;50437;51.970;5.904;2022-12-07T08:38:34;2.30;99.90
64143;DHT22;50437;51.970;5.904;2022-12-07T08:41:00;2.30;99.90
64143;DHT22;50437;51.970;5.904;2022-12-07T08:43:26;2.30;99.90
64143;DHT22;50437;51.970;5.904;2022-12-07T08:45:59;2.40;99.90
64143;DHT22;50437;51.970;5.904;2022-12-07T08:48:28;2.50;99.90
64143;DHT22;50437;51.970;5.904;2022-12-07T08:50:55;2.50;99.90
64143;DHT22;50437;51.970;5.904;2022-12-07T08:53:21;2.40;99.90
64143;DHT22;50437;51.970;5.904;2022-12-07T08:55:47;2.40;99.90
64143;DHT22;50437;51.970;5.904;2022-12-07T08:58:13;2.40;99.90
64143;DHT22;50437;51.970;5.904;2022-12-07T09:00:39;2.40;99.90
64143;DHT22;50437;51.970;5.904;2022-12-07T09:03:07;2.50;99.90
64143;DHT22;50437;51.970;5.904;2022-12-07T09:05:33;2.50;99.90
64143;DHT22;50437;51.970;5.904;2022-12-07T09:08:00;2.60;99.90
64143;DHT22;50437;51.970;5.904;2022-12-07T09:10:27;2.60;99.90
64143;DHT22;50437;51.970;5.904;2022-12-07T09:12:53;2.80;99.90
64143;DHT22;50437;51.970;5.904;2022-12-07T09:15:19;3.00;99.90
64143;DHT22;50437;51.970;5.904;2022-12-07T09:17:45;3.10;99.90
64143;DHT22;50437;51.970;5.904;2022-12-07T09:20:11;3.20;99.90
64143;DHT22;50437;51.970;5.904;2022-12-07T09:22:37;3.20;99.90
64143;DHT22;50437;51.970;5.904;2022-12-07T09:25:04;3.30;99.90
64143;DHT22;50437;51.970;5.904;2022-12-07T09:27:30;3.40;99.90
64143;DHT22;50437;51.970;5.904;2022-12-07T09:29:56;3.50;99.90
64143;DHT22;50437;51.970;5.904;2022-12-07T09:32:22;3.60;99.90
64143;DHT22;50437;51.970;5.904;2022-12-07T09:34:48;3.70;99.90
64143;DHT22;50437;51.970;5.904;2022-12-07T09:37:14;3.60;99.90
64143;DHT22;50437;51.970;5.904;2022-12-07T09:39:40;3.70;99.90
64143;DHT22;50437;51.970;5.904;2022-12-07T09:42:07;3.80;99.90
64143;DHT22;50437;51.970;5.904;2022-12-07T09:44:33;3.80;99.90
64143;DHT22;50437;51.970;5.904;2022-12-07T09:47:00;3.80;99.90
64143;DHT22;50437;51.970;5.904;2022-12-07T09:49:31;3.80;99.90
64143;DHT22;50437;51.970;5.904;2022-12-07T09:54:26;4.00;99.90
64143;DHT22;50437;51.970;5.904;2022-12-07T09:56:52;4.00;99.90
64143;DHT22;50437;51.970;5.904;2022-12-07T09:59:18;4.00;99.90
64143;DHT22;50437;51.970;5.904;2022-12-07T10:01:48;3.90;99.90
64143;DHT22;50437;51.970;5.904;2022-12-07T10:04:15;3.80;99.90
64143;DHT22;50437;51.970;5.904;2022-12-07T10:06:42;3.80;99.90
64143;DHT22;50437;51.970;5.904;2022-12-07T10:09:12;3.70;99.90
64143;DHT22;50437;51.970;5.904;2022-12-07T10:14:23;3.70;99.90
64143;DHT22;50437;51.970;5.904;2022-12-07T10:16:49;3.70;99.90
64143;DHT22;50437;51.970;5.904;2022-12-07T10:19:20;3.70;99.90
64143;DHT22;50437;51.970;5.904;2022-12-07T10:24:46;3.80;99.90
64143;DHT22;50437;51.970;5.904;2022-12-07T10:27:19;3.90;99.90
64143;DHT22;50437;51.970;5.904;2022-12-07T10:29:47;3.90;99.90
64143;DHT22;50437;51.970;5.904;2022-12-07T10:34:39;4.10;99.90
64143;DHT22;50437;51.970;5.904;2022-12-07T10:39:45;4.10;99.90
64143;DHT22;50437;51.970;5.904;2022-12-07T10:44:43;4.20;99.90
64143;DHT22;50437;51.970;5.904;2022-12-07T10:47:28;4.30;99.90
64143;DHT22;50437;51.970;5.904;2022-12-07T10:50:08;4.50;99.90
64143;DHT22;50437;51.970;5.904;2022-12-07T10:57:49;5.10;99.90
64143;DHT22;50437;51.970;5.904;2022-12-07T11:02:50;5.30;99.90
64143;DHT22;50437;51.970;5.904;2022-12-07T11:05:24;5.30;99.90
64143;DHT22;50437;51.970;5.904;2022-12-07T11:07:56;5.40;99.90
64143;DHT22;50437;51.970;5.904;2022-12-07T11:16:01;5.40;99.90
64143;DHT22;50437;51.970;5.904;2022-12-07T11:23:23;5.30;99.90
64143;DHT22;50437;51.970;5.904;2022-12-07T11:26:05;5.30;99.90
64143;DHT22;50437;51.970;5.904;2022-12-07T11:38:54;6.70;99.90
64143;DHT22;50437;51.970;5.904;2022-12-07T11:41:22;7.10;99.90
64143;DHT22;50437;51.970;5.904;2022-12-07T11:43:53;6.90;99.90
64143;DHT22;50437;51.970;5.904;2022-12-07T11:46:20;7.00;99.90
64143;DHT22;50437;51.970;5.904;2022-12-07T11:49:04;6.60;99.90
64143;DHT22;50437;51.970;5.904;2022-12-07T11:51:36;6.60;99.90
64143;DHT22;50437;51.970;5.904;2022-12-07T11:54:12;6.50;99.90
64143;DHT22;50437;51.970;5.904;2022-12-07T11:56:39;6.50;99.90
64143;DHT22;50437;51.970;5.904;2022-12-07T11:59:17;6.80;99.90
64143;DHT22;50437;51.970;5.904;2022-12-07T12:01:56;6.70;99.90
64143;DHT22;50437;51.970;5.904;2022-12-07T12:04:32;6.70;99.90
64143;DHT22;50437;51.970;5.904;2022-12-07T12:06:58;6.60;99.90
64143;DHT22;50437;51.970;5.904;2022-12-07T12:17:09;5.90;99.90
64143;DHT22;50437;51.970;5.904;2022-12-07T12:22:26;5.80;99.90
64143;DHT22;50437;51.970;5.904;2022-12-07T12:24:54;5.80;99.90
64143;DHT22;50437;51.970;5.904;2022-12-07T12:27:23;5.80;99.90
64143;DHT22;50437;51.970;5.904;2022-12-07T12:29:54;5.90;99.90
64143;DHT22;50437;51.970;5.904;2022-12-07T12:32:21;6.20;99.90
64143;DHT22;50437;51.970;5.904;2022-12-07T12:43:38;6.40;99.90
64143;DHT22;50437;51.970;5.904;2022-12-07T12:45:32;6.50;99.90
64143;DHT22;50437;51.970;5.904;2022-12-07T12:48:01;6.70;99.90
64143;DHT22;50437;51.970;5.904;2022-12-07T12:50:32;6.60;99.90
64143;DHT22;50437;51.970;5.904;2022-12-07T12:53:00;6.70;99.90
64143;DHT22;50437;51.970;5.904;2022-12-07T13:00:43;6.70;99.90
64143;DHT22;50437;51.970;5.904;2022-12-07T13:03:23;6.70;99.90
64143;DHT22;50437;51.970;5.904;2022-12-07T13:06:16;6.60;99.90
64143;DHT22;50437;51.970;5.904;2022-12-07T13:08:37;6.50;99.90
64143;DHT22;50437;51.970;5.904;2022-12-07T13:13:51;6.40;99.90
64143;DHT22;50437;51.970;5.904;2022-12-07T13:18:43;6.50;99.90
64143;DHT22;50437;51.970;5.904;2022-12-07T13:26:19;6.60;99.90
64143;DHT22;50437;51.970;5.904;2022-12-07T13:28:49;6.50;99.90
64143;DHT22;50437;51.970;5.904;2022-12-07T13:31:19;6.50;99.90
64143;DHT22;50437;51.970;5.904;2022-12-07T13:33:46;6.50;99.90
64143;DHT22;50437;51.970;5.904;2022-12-07T13:36:17;6.50;99.90
64143;DHT22;50437;51.970;5.904;2022-12-07T13:38:48;6.60;99.90
64143;DHT22;50437;51.970;5.904;2022-12-07T13:41:15;6.60;99.90
64143;DHT22;50437;51.970;5.904;2022-12-07T13:43:42;6.50;99.90
64143;DHT22;50437;51.970;5.904;2022-12-07T13:46:08;6.40;99.90
64143;DHT22;50437;51.970;5.904;2022-12-07T13:48:41;6.50;99.90
64143;DHT22;50437;51.970;5.904;2022-12-07T13:51:14;6.50;99.90
64143;DHT22;50437;51.970;5.904;2022-12-07T13:53:53;6.50;99.90
64143;DHT22;50437;51.970;5.904;2022-12-07T13:56:20;6.60;99.90
64143;DHT22;50437;51.970;5.904;2022-12-07T13:58:46;6.60;99.90
64143;DHT22;50437;51.970;5.904;2022-12-07T14:01:12;6.60;99.90
64143;DHT22;50437;51.970;5.904;2022-12-07T14:03:39;6.80;99.90
64143;DHT22;50437;51.970;5.904;2022-12-07T14:06:16;6.80;99.90
64143;DHT22;50437;51.970;5.904;2022-12-07T14:08:42;6.70;99.90
64143;DHT22;50437;51.970;5.904;2022-12-07T14:11:15;6.60;99.90
64143;DHT22;50437;51.970;5.904;2022-12-07T14:13:50;6.60;99.90
64143;DHT22;50437;51.970;5.904;2022-12-07T14:18:46;6.30;99.90
64143;DHT22;50437;51.970;5.904;2022-12-07T14:23:38;6.00;99.90
64143;DHT22;50437;51.970;5.904;2022-12-07T14:26:11;5.50;99.90
64143;DHT22;50437;51.970;5.904;2022-12-07T14:28:39;5.20;99.90
64143;DHT22;50437;51.970;5.904;2022-12-07T14:31:10;5.10;99.90
64143;DHT22;50437;51.970;5.904;2022-12-07T14:33:36;5.00;99.90
64143;DHT22;50437;51.970;5.904;2022-12-07T14:36:03;4.90;99.90
64143;DHT22;50437;51.970;5.904;2022-12-07T14:38:29;4.80;99.90
64143;DHT22;50437;51.970;5.904;2022-12-07T14:40:55;4.80;99.90
64143;DHT22;50437;51.970;5.904;2022-12-07T14:43:41;4.80;99.90
64143;DHT22;50437;51.970;5.904;2022-12-07T14:46:08;4.80;99.90
64143;DHT22;50437;51.970;5.904;2022-12-07T14:48:34;4.80;99.90
64143;DHT22;50437;51.970;5.904;2022-12-07T14:51:00;4.70;99.90
64143;DHT22;50437;51.970;5.904;2022-12-07T14:53:37;4.80;99.90
64143;DHT22;50437;51.970;5.904;2022-12-07T14:56:04;4.80;99.90
64143;DHT22;50437;51.970;5.904;2022-12-07T14:58:31;4.90;99.90
64143;DHT22;50437;51.970;5.904;2022-12-07T15:00:58;4.90;99.90
64143;DHT22;50437;51.970;5.904;2022-12-07T15:03:24;4.90;99.90
64143;DHT22;50437;51.970;5.904;2022-12-07T15:05:50;4.80;99.90
64143;DHT22;50437;51.970;5.904;2022-12-07T15:08:16;4.90;99.90
64143;DHT22;50437;51.970;5.904;2022-12-07T15:10:42;4.90;99.90
64143;DHT22;50437;51.970;5.904;2022-12-07T15:13:08;5.00;99.90
64143;DHT22;50437;51.970;5.904;2022-12-07T15:15:53;5.00;99.90
64143;DHT22;50437;51.970;5.904;2022-12-07T15:18:19;5.00;99.90
64143;DHT22;50437;51.970;5.904;2022-12-07T15:20:45;5.10;99.90
64143;DHT22;50437;51.970;5.904;2022-12-07T15:23:11;5.10;99.90
64143;DHT22;50437;51.970;5.904;2022-12-07T15:25:41;5.00;99.90
64143;DHT22;50437;51.970;5.904;2022-12-07T15:28:07;5.00;99.90
64143;DHT22;50437;51.970;5.904;2022-12-07T15:30:33;5.00;99.90
64143;DHT22;50437;51.970;5.904;2022-12-07T15:32:59;5.00;99.90
64143;DHT22;50437;51.970;5.904;2022-12-07T15:35:25;4.90;99.90
64143;DHT22;50437;51.970;5.904;2022-12-07T15:37:50;4.90;99.90
64143;DHT22;50437;51.970;5.904;2022-12-07T15:40:16;4.80;99.90
64143;DHT22;50437;51.970;5.904;2022-12-07T15:42:42;4.80;99.90
64143;DHT22;50437;51.970;5.904;2022-12-07T15:45:08;4.80;99.90
64143;DHT22;50437;51.970;5.904;2022-12-07T15:47:38;4.70;99.90
64143;DHT22;50437;51.970;5.904;2022-12-07T15:50:06;4.70;99.90
64143;DHT22;50437;51.970;5.904;2022-12-07T15:52:33;4.60;99.90
64143;DHT22;50437;51.970;5.904;2022-12-07T15:54:59;4.60;99.90
64143;DHT22;50437;51.970;5.904;2022-12-07T15:57:31;4.60;99.90
64143;DHT22;50437;51.970;5.904;2022-12-07T15:59:57;4.60;99.90
64143;DHT22;50437;51.970;5.904;2022-12-07T16:02:23;4.70;99.90
64143;DHT22;50437;51.970;5.904;2022-12-07T16:04:50;4.70;99.90
64143;DHT22;50437;51.970;5.904;2022-12-07T16:07:16;4.70;99.90
64143;DHT22;50437;51.970;5.904;2022-12-07T16:09:43;4.70;99.90
64143;DHT22;50437;51.970;5.904;2022-12-07T16:12:10;4.70;99.90
64143;DHT22;50437;51.970;5.904;2022-12-07T16:14:36;4.70;99.90
64143;DHT22;50437;51.970;5.904;2022-12-07T16:17:03;4.70;99.90
64143;DHT22;50437;51.970;5.904;2022-12-07T16:19:30;4.70;99.90
64143;DHT22;50437;51.970;5.904;2022-12-07T16:21:56;4.70;99.90
64143;DHT22;50437;51.970;5.904;2022-12-07T16:24:22;4.70;99.90
64143;DHT22;50437;51.970;5.904;2022-12-07T16:26:48;4.70;99.90
64143;DHT22;50437;51.970;5.904;2022-12-07T16:29:15;4.60;99.90
64143;DHT22;50437;51.970;5.904;2022-12-07T16:31:41;4.60;99.90
64143;DHT22;50437;51.970;5.904;2022-12-07T16:34:08;4.50;99.90
64143;DHT22;50437;51.970;5.904;2022-12-07T16:36:34;4.50;99.90
64143;DHT22;50437;51.970;5.904;2022-12-07T16:39:00;4.40;99.90
64143;DHT22;50437;51.970;5.904;2022-12-07T16:41:26;4.50;99.90
64143;DHT22;50437;51.970;5.904;2022-12-07T16:43:52;4.40;99.90
64143;DHT22;50437;51.970;5.904;2022-12-07T16:46:20;4.40;99.90
64143;DHT22;50437;51.970;5.904;2022-12-07T16:48:46;4.30;99.90
64143;DHT22;50437;51.970;5.904;2022-12-07T16:51:13;4.40;99.90
64143;DHT22;50437;51.970;5.904;2022-12-07T16:53:40;4.30;99.90
64143;DHT22;50437;51.970;5.904;2022-12-07T16:56:13;4.20;99.90
64143;DHT22;50437;51.970;5.904;2022-12-07T16:58:43;4.20;99.90
64143;DHT22;50437;51.970;5.904;2022-12-07T17:01:13;4.20;99.90
64143;DHT22;50437;51.970;5.904;2022-12-07T17:03:40;4.20;99.90
64143;DHT22;50437;51.970;5.904;2022-12-07T17:06:39;4.10;99.90
64143;DHT22;50437;51.970;5.904;2022-12-07T17:08:58;4.10;99.90
64143;DHT22;50437;51.970;5.904;2022-12-07T17:11:28;4.10;99.90
64143;DHT22;50437;51.970;5.904;2022-12-07T17:13:56;4.10;99.90
64143;DHT22;50437;51.970;5.904;2022-12-07T17:16:41;4.10;99.90
64143;DHT22;50437;51.970;5.904;2022-12-07T17:19:07;4.10;99.90
64143;DHT22;50437;51.970;5.904;2022-12-07T17:21:34;4.10;99.90
64143;DHT22;50437;51.970;5.904;2022-12-07T17:24:00;4.00;99.90
64143;DHT22;50437;51.970;5.904;2022-12-07T17:26:26;4.10;99.90
64143;DHT22;50437;51.970;5.904;2022-12-07T17:28:52;4.00;99.90
64143;DHT22;50437;51.970;5.904;2022-12-07T17:31:19;4.10;99.90
64143;DHT22;50437;51.970;5.904;2022-12-07T17:33:46;4.00;99.90
64143;DHT22;50437;51.970;5.904;2022-12-07T17:36:13;4.00;99.90
64143;DHT22;50437;51.970;5.904;2022-12-07T17:38:39;3.90;99.90
64143;DHT22;50437;51.970;5.904;2022-12-07T17:41:12;3.90;99.90